Alingsas Airport


Codes: ESGI/
Name: Alingsas Airport
City: Alingsas
Country: Sweden
Elevation: 0 ft.

Photos at Alingsas Airport


   Photos courtesy of SpottingLog. You can add your own sightings and photos by signing up for a free trial today.



No photos found.

Weather at Alingsas Airport


Time (UTC)DescriptionTempratureWindCloud coverageVisibilityPressureHumidity
16-Jun-2024 03:00Broken Clouds11°C7 mph, S55%10000m1007hPa98%
16-Jun-2024 06:00Scattered Clouds13°C9 mph, S44%10000m1007hPa91%
16-Jun-2024 09:00Light Rain18°C11 mph, S40%10000m1009hPa56%
16-Jun-2024 12:00Light Rain16°C7 mph, S69%10000m1009hPa76%
16-Jun-2024 15:00Light Rain17°C7 mph, SE99%10000m1009hPa62%
16-Jun-2024 18:00Light Rain14°C9 mph, SE95%10000m1009hPa79%
16-Jun-2024 21:00Overcast Clouds12°C7 mph, SE96%10000m1010hPa86%
17-Jun-2024 00:00Light Rain13°C7 mph, SE98%10000m1009hPa89%
17-Jun-2024 03:00Light Rain12°C7 mph, S100%8891m1009hPa97%
17-Jun-2024 06:00Light Rain14°C7 mph, S100%10000m1010hPa94%
17-Jun-2024 09:00Light Rain16°C7 mph, SW76%10000m1011hPa83%
17-Jun-2024 12:00Light Rain20°C9 mph, SW75%10000m1011hPa45%
17-Jun-2024 15:00Broken Clouds20°C9 mph, SW57%10000m1011hPa46%
17-Jun-2024 18:00Scattered Clouds17°C7 mph, SW29%10000m1011hPa58%
17-Jun-2024 21:00Few Clouds10°C4 mph, S12%10000m1012hPa90%
18-Jun-2024 00:00Scattered Clouds10°C4 mph, S31%10000m1012hPa96%
18-Jun-2024 03:00Clear Sky10°C4 mph, S4%10000m1011hPa98%
18-Jun-2024 06:00Few Clouds14°C9 mph, SW15%10000m1011hPa78%
18-Jun-2024 09:00Light Rain17°C11 mph, SW58%10000m1010hPa51%
18-Jun-2024 12:00Light Rain17°C16 mph, SW67%10000m1009hPa62%
18-Jun-2024 15:00Light Rain15°C11 mph, SW67%10000m1008hPa82%
18-Jun-2024 18:00Light Rain13°C11 mph, SW46%10000m1008hPa82%
18-Jun-2024 21:00Broken Clouds12°C13 mph, SW82%10000m1008hPa81%
19-Jun-2024 00:00Light Rain12°C11 mph, SW91%10000m1007hPa90%
19-Jun-2024 03:00Overcast Clouds12°C9 mph, SW100%10000m1006hPa86%
19-Jun-2024 06:00Broken Clouds15°C7 mph, SW72%10000m1006hPa72%
19-Jun-2024 09:00Light Rain18°C7 mph, NW12%10000m1007hPa61%
19-Jun-2024 12:00Light Rain17°C7 mph, W41%10000m1009hPa77%
19-Jun-2024 15:00Light Rain19°C11 mph, W100%10000m1011hPa50%
19-Jun-2024 18:00Overcast Clouds15°C11 mph, SW99%10000m1012hPa62%
19-Jun-2024 21:00Overcast Clouds12°C13 mph, SW93%10000m1013hPa72%
20-Jun-2024 00:00Broken Clouds11°C13 mph, W58%10000m1012hPa83%
20-Jun-2024 03:00Scattered Clouds12°C16 mph, W49%10000m1012hPa85%
20-Jun-2024 06:00Broken Clouds14°C13 mph, SW73%10000m1011hPa79%
20-Jun-2024 09:00Overcast Clouds17°C18 mph, SW85%10000m1010hPa65%
20-Jun-2024 12:00Broken Clouds18°C18 mph, W76%10000m1009hPa65%
20-Jun-2024 15:00Broken Clouds17°C16 mph, W52%10000m1008hPa66%
20-Jun-2024 18:00Scattered Clouds14°C13 mph, W34%10000m1008hPa74%
20-Jun-2024 21:00Clear Sky11°C9 mph, SW1%10000m1008hPa87%
21-Jun-2024 00:00Clear Sky9°C7 mph, SW3%10000m1008hPa98%